Time;durP1;ratioP1;P1;durP2;ratioP2;P2;SDS_P1;SDS_P2;PMS_P1;PMS_P2;Temp;Humidity;BMP_temperature;BMP_pressure;BME280_temperature;BME280_humidity;BME280_pressure;Samples;Min_cycle;Max_cycle;Signal;HPM_P1;HPM_P2
2021/04/25 03:19:20;;;;;;;1.57;1.43;;;21.70;45.70;;;;;;4945034;29;20415;-84
2021/04/25 06:45:11;;;;;;;1.50;1.27;;;21.90;45.70;;;;;;4928458;29;20418;-83
2021/04/25 06:47:38;;;;;;;1.47;1.30;;;22.00;45.80;;;;;;4945723;29;20459;-84
2021/04/25 06:50:10;;;;;;;1.70;1.60;;;22.00;45.90;;;;;;4945718;29;20471;-84
2021/04/25 06:52:36;;;;;;;1.67;1.40;;;22.10;46.00;;;;;;4945928;29;20426;-84
2021/04/25 06:55:03;;;;;;;1.77;1.50;;;22.10;45.90;;;;;;5009405;28;20412;-84
2021/04/25 06:57:30;;;;;;;2.77;1.57;;;22.10;45.80;;;;;;5007782;28;20420;-84
2021/04/25 06:59:55;;;;;;;1.50;1.40;;;22.10;45.90;;;;;;5005540;28;20559;-84
2021/04/25 07:02:21;;;;;;;1.80;1.20;;;22.10;45.90;;;;;;5004613;28;20427;-84
2021/04/25 07:04:47;;;;;;;1.63;1.40;;;22.10;46.00;;;;;;4988559;28;20184;-83
2021/04/25 07:07:16;;;;;;;1.40;1.30;;;22.10;45.80;;;;;;5007770;28;20173;-82
2021/04/25 07:50:45;;;;;;;2.27;2.00;;;22.10;46.20;;;;;;4892778;29;20448;-85
2021/04/25 08:21:40;;;;;;;1.80;1.53;;;22.10;46.30;;;;;;4986804;28;20416;-85
2021/04/25 09:05:00;;;;;;;2.37;1.80;;;22.20;46.40;;;;;;4799795;30;20414;-88
2021/04/25 09:07:26;;;;;;;3.13;1.87;;;22.20;46.50;;;;;;4802224;30;20426;-88
2021/04/25 09:10:02;;;;;;;3.40;2.20;;;22.20;46.50;;;;;;4797475;29;20458;-85
2021/04/25 09:12:32;;;;;;;5.57;2.77;;;22.30;46.50;;;;;;4850418;29;20245;-86
2021/04/25 09:14:59;;;;;;;5.07;2.57;;;22.30;46.60;;;;;;4834552;29;20945;-88
2021/04/25 09:17:25;;;;;;;5.23;2.50;;;22.30;46.50;;;;;;4848892;29;20570;-88
2021/04/25 09:19:59;;;;;;;3.80;1.87;;;22.30;46.50;;;;;;4849547;29;20440;-88
2021/04/25 09:22:43;;;;;;;3.50;2.37;;;22.30;46.50;;;;;;4833178;29;20429;-88
2021/04/25 09:25:11;;;;;;;3.30;2.33;;;22.30;46.40;;;;;;4836761;29;20430;-88
2021/04/25 09:27:36;;;;;;;4.50;2.40;;;22.30;46.40;;;;;;4870171;29;20470;-88
2021/04/25 09:30:04;;;;;;;3.70;2.20;;;22.30;46.50;;;;;;4871246;29;20743;-86
2021/04/25 09:32:32;;;;;;;6.93;3.03;;;22.30;46.40;;;;;;4870960;29;20624;-85
2021/04/25 09:35:09;;;;;;;3.63;2.17;;;22.30;46.40;;;;;;4870752;29;20422;-86
2021/04/25 09:37:37;;;;;;;2.47;2.10;;;22.40;46.50;;;;;;4889025;28;20438;-85
2021/04/25 09:40:26;;;;;;;2.93;2.30;;;22.40;46.50;;;;;;4984684;28;20417;-84
2021/04/25 09:43:07;;;;;;;3.10;2.50;;;22.40;46.50;;;;;;4984658;28;20401;-82
2021/04/25 09:45:48;;;;;;;3.07;2.37;;;22.30;46.40;;;;;;4966345;28;20433;-85
2021/04/25 09:59:22;;;;;;;4.37;2.50;;;22.40;46.50;;;;;;4926089;29;20395;-84
2021/04/25 10:01:49;;;;;;;4.43;2.40;;;22.50;46.50;;;;;;4927628;29;20456;-83
2021/04/25 10:04:36;;;;;;;4.00;2.13;;;22.30;46.40;;;;;;4926236;29;20430;-83
2021/04/25 10:07:03;;;;;;;4.07;2.53;;;22.40;46.40;;;;;;4924895;29;20443;-83
2021/04/25 10:09:32;;;;;;;3.40;2.90;;;22.30;46.20;;;;;;4923603;29;20554;-84
2021/04/25 10:12:00;;;;;;;5.97;2.43;;;22.40;46.20;;;;;;4924542;29;20961;-83
2021/04/25 10:14:28;;;;;;;6.80;3.30;;;22.20;46.10;;;;;;4926628;29;20416;-84
2021/04/25 10:16:54;;;;;;;3.90;2.57;;;22.40;46.30;;;;;;4923705;29;20444;-84
2021/04/25 10:19:21;;;;;;;4.73;2.67;;;22.40;46.00;;;;;;4924338;29;20511;-84
2021/04/25 10:21:47;;;;;;;6.10;2.50;;;22.40;46.00;;;;;;4923457;29;20444;-83
2021/04/25 10:24:24;;;;;;;3.03;2.73;;;22.40;46.00;;;;;;4924949;29;20467;-83
2021/04/25 10:26:58;;;;;;;4.30;2.80;;;22.40;45.90;;;;;;4923832;29;20411;-83
2021/04/25 10:29:38;;;;;;;8.80;2.73;;;22.40;45.90;;;;;;4924105;29;20447;-84
2021/04/25 10:32:06;;;;;;;3.37;2.60;;;22.40;45.60;;;;;;4957517;28;20508;-84
2021/04/25 10:34:32;;;;;;;6.23;3.40;;;22.30;45.50;;;;;;4965424;28;20413;-84
2021/04/25 10:37:04;;;;;;;2.97;2.40;;;22.30;45.50;;;;;;4981454;28;20417;-83
2021/04/25 10:39:53;;;;;;;6.40;3.13;;;22.30;45.50;;;;;;4965737;28;20524;-82
2021/04/25 10:42:26;;;;;;;2.70;2.00;;;22.30;45.50;;;;;;4967568;28;20479;-83
2021/04/25 10:44:57;;;;;;;7.03;2.60;;;22.30;45.50;;;;;;4989928;28;20390;-83
2021/04/25 10:47:24;;;;;;;4.90;2.90;;;22.30;45.40;;;;;;4987114;28;20732;-84
2021/04/25 10:49:56;;;;;;;3.93;2.33;;;22.30;45.30;;;;;;4987641;28;20417;-83
2021/04/25 10:52:27;;;;;;;3.50;2.57;;;22.20;45.20;;;;;;4990404;28;20416;-84
2021/04/25 10:55:14;;;;;;;4.53;2.93;;;22.20;45.10;;;;;;4986347;28;20975;-83
2021/04/25 10:57:55;;;;;;;5.37;2.93;;;22.20;45.10;;;;;;4988948;28;20420;-83
2021/04/25 11:00:45;;;;;;;4.50;2.70;;;22.20;45.20;;;;;;4989890;28;20517;-83
2021/04/25 11:03:34;;;;;;;3.90;2.83;;;22.20;45.10;;;;;;4989867;28;20416;-85
2021/04/25 11:06:00;;;;;;;4.20;2.63;;;22.10;45.10;;;;;;4988617;28;20670;-84
2021/04/25 11:08:29;;;;;;;4.93;2.90;;;22.10;44.30;;;;;;4985799;28;20464;-84
2021/04/25 11:11:02;;;;;;;3.23;2.13;;;22.00;43.30;;;;;;4985706;28;20820;-84
2021/04/25 11:13:49;;;;;;;3.73;3.03;;;21.90;43.30;;;;;;4990202;28;20408;-84
2021/04/25 11:16:29;;;;;;;5.73;3.00;;;21.80;43.60;;;;;;4975098;28;20421;-85
2021/04/25 11:19:09;;;;;;;4.80;2.20;;;21.80;44.00;;;;;;4992080;28;20420;-84
2021/04/25 11:21:49;;;;;;;4.50;2.50;;;21.80;44.10;;;;;;4991581;28;20417;-84
2021/04/25 11:24:24;;;;;;;3.20;2.33;;;21.90;44.40;;;;;;4992515;28;20428;-84
2021/04/25 11:27:08;;;;;;;3.67;2.30;;;21.90;44.30;;;;;;4991487;28;20401;-84
2021/04/25 11:29:50;;;;;;;5.70;2.50;;;21.90;44.50;;;;;;4977212;28;20525;-85
2021/04/25 11:32:27;;;;;;;3.17;2.53;;;21.90;44.40;;;;;;4992153;28;20421;-84
2021/04/25 11:35:01;;;;;;;4.80;2.40;;;21.80;42.80;;;;;;4995426;28;20389;-84
2021/04/25 11:59:02;;;;;;;3.40;2.27;;;21.90;45.10;;;;;;4969404;28;20441;-83
2021/04/25 12:04:53;;;;;;;5.10;2.00;;;22.00;45.30;;;;;;4968800;28;20401;-86
2021/04/25 12:07:48;;;;;;;3.10;1.90;;;22.00;45.40;;;;;;4971658;29;20501;-86
2021/04/25 12:10:36;;;;;;;6.07;2.63;;;22.00;45.40;;;;;;4967941;29;20513;-86
2021/04/25 12:13:25;;;;;;;3.17;2.20;;;22.10;45.50;;;;;;4974700;28;20409;-83
2021/04/25 12:15:57;;;;;;;3.70;2.77;;;22.10;45.40;;;;;;4986516;28;20565;-83
2021/04/25 12:18:27;;;;;;;2.97;2.27;;;22.10;45.50;;;;;;5044456;28;20420;-83
2021/04/25 12:20:57;;;;;;;2.67;2.00;;;22.20;45.50;;;;;;5073140;28;20419;-82
2021/04/25 12:23:25;;;;;;;3.03;2.00;;;22.10;45.50;;;;;;5088999;28;20416;-82
2021/04/25 12:25:55;;;;;;;3.70;2.07;;;22.10;45.50;;;;;;5072942;28;20439;-83
2021/04/25 12:28:38;;;;;;;3.00;2.07;;;22.20;45.50;;;;;;5067244;28;20523;-83
2021/04/25 12:31:05;;;;;;;3.73;2.40;;;22.20;45.50;;;;;;5077588;28;20428;-83
2021/04/25 12:33:56;;;;;;;1.63;1.43;;;22.20;45.50;;;;;;5066119;28;20443;-83
2021/04/25 12:36:27;;;;;;;3.50;2.47;;;22.20;46.10;;;;;;5058496;28;20463;-83
2021/04/25 12:39:04;;;;;;;2.93;2.30;;;22.20;45.50;;;;;;5077784;28;20419;-84
2021/04/25 12:41:50;;;;;;;2.93;2.10;;;22.20;45.50;;;;;;5073142;28;20409;-85
2021/04/25 12:44:19;;;;;;;2.50;2.20;;;22.30;45.60;;;;;;5065546;28;20450;-85
2021/04/25 12:46:56;;;;;;;2.50;2.10;;;22.20;45.50;;;;;;5086263;28;20421;-83
2021/04/25 12:49:33;;;;;;;3.77;2.20;;;22.30;45.60;;;;;;5083174;28;20525;-83
2021/04/25 12:51:59;;;;;;;2.97;1.83;;;22.30;45.60;;;;;;5084869;28;20418;-83
2021/04/25 12:54:27;;;;;;;2.30;1.63;;;22.30;45.70;;;;;;5065669;28;20444;-82
2021/04/25 12:56:56;;;;;;;2.37;1.80;;;22.30;45.60;;;;;;5096115;28;20529;-83
2021/04/25 12:59:37;;;;;;;2.50;2.20;;;22.30;45.70;;;;;;5086976;28;20494;-84
2021/04/25 13:02:19;;;;;;;3.47;1.70;;;22.30;45.70;;;;;;5083016;28;20409;-83
2021/04/25 13:04:51;;;;;;;3.60;2.20;;;22.30;45.70;;;;;;5088789;28;20791;-83
2021/04/25 13:07:40;;;;;;;3.87;1.93;;;22.30;45.70;;;;;;5065752;28;20424;-83
2021/04/25 13:10:26;;;;;;;3.00;2.07;;;22.30;45.70;;;;;;5080527;28;20507;-83
2021/04/25 13:12:55;;;;;;;2.77;2.10;;;22.30;45.70;;;;;;5089852;28;20417;-84
2021/04/25 13:15:35;;;;;;;2.23;1.90;;;22.30;45.70;;;;;;5070996;28;20404;-83
2021/04/25 13:21:45;;;;;;;2.17;1.87;;;22.40;45.80;;;;;;5088853;28;20428;-83
2021/04/25 13:24:16;;;;;;;4.47;2.20;;;22.30;45.70;;;;;;5066875;28;20451;-82
2021/04/25 13:26:42;;;;;;;2.03;1.80;;;22.30;45.80;;;;;;5071285;28;20425;-84
2021/04/25 13:29:19;;;;;;;2.37;1.90;;;22.30;45.80;;;;;;5087131;28;20453;-83
2021/04/25 13:31:47;;;;;;;3.87;1.97;;;22.30;45.80;;;;;;5077755;28;20420;-83
2021/04/25 13:34:14;;;;;;;2.13;1.80;;;22.30;45.80;;;;;;5092053;28;20399;-83
2021/04/25 13:36:41;;;;;;;1.93;1.63;;;22.30;45.80;;;;;;5090102;28;20447;-83
2021/04/25 13:39:11;;;;;;;2.43;2.07;;;22.30;45.80;;;;;;5067859;28;20424;-84
2021/04/25 13:41:42;;;;;;;2.97;1.70;;;22.30;45.80;;;;;;5068802;28;20428;-84
2021/04/25 13:44:11;;;;;;;3.43;1.70;;;22.30;45.80;;;;;;5078846;28;20496;-84
2021/04/25 13:46:45;;;;;;;2.90;1.80;;;22.30;45.90;;;;;;5069188;28;20903;-84
2021/04/25 13:49:13;;;;;;;2.17;1.87;;;22.30;45.80;;;;;;5068898;28;20478;-84
2021/04/25 13:51:39;;;;;;;2.80;1.83;;;22.30;46.10;;;;;;5062645;28;20501;-84
2021/04/25 13:54:06;;;;;;;2.00;1.60;;;22.30;46.00;;;;;;5076959;28;20453;-84
2021/04/25 13:56:32;;;;;;;4.03;2.17;;;22.30;45.90;;;;;;5086032;28;20421;-84
2021/04/25 13:58:58;;;;;;;2.60;1.60;;;22.30;45.90;;;;;;5064184;28;20428;-83
2021/04/25 14:01:24;;;;;;;2.90;1.90;;;22.40;46.00;;;;;;5089702;28;20416;-84
2021/04/25 14:03:50;;;;;;;2.37;1.70;;;22.40;46.10;;;;;;5067078;28;20494;-84
2021/04/25 14:06:20;;;;;;;2.23;1.50;;;22.30;45.90;;;;;;5069698;28;20450;-84
2021/04/25 14:08:46;;;;;;;2.30;1.80;;;22.40;46.30;;;;;;5082706;28;20453;-84
2021/04/25 14:11:15;;;;;;;2.17;1.83;;;22.40;46.00;;;;;;5077837;28;20432;-84
2021/04/25 14:13:41;;;;;;;2.23;1.90;;;22.40;46.00;;;;;;5085377;28;20418;-83
2021/04/25 14:16:07;;;;;;;3.17;1.80;;;22.40;46.00;;;;;;5083945;28;20420;-83
2021/04/25 14:18:34;;;;;;;2.70;1.73;;;22.40;46.00;;;;;;5090046;28;20421;-84
2021/04/25 14:21:01;;;;;;;3.40;1.70;;;22.40;46.00;;;;;;5067305;28;20492;-83
2021/04/25 14:23:28;;;;;;;1.93;1.70;;;22.40;46.00;;;;;;5087028;28;20443;-83
2021/04/25 14:26:01;;;;;;;2.23;1.73;;;22.40;46.00;;;;;;5068013;28;20922;-84
2021/04/25 14:28:30;;;;;;;2.07;1.40;;;22.40;46.10;;;;;;5067953;28;20518;-84
2021/04/25 14:30:56;;;;;;;2.80;1.63;;;22.40;46.20;;;;;;5096763;28;20460;-84
2021/04/25 14:33:22;;;;;;;1.97;1.60;;;22.40;46.00;;;;;;5072952;28;20393;-84
2021/04/25 14:35:48;;;;;;;2.30;1.63;;;22.40;46.30;;;;;;5080643;28;20436;-84
2021/04/25 14:38:14;;;;;;;2.87;1.80;;;22.40;46.10;;;;;;5081348;28;20608;-84
2021/04/25 14:40:39;;;;;;;2.37;1.90;;;22.40;46.10;;;;;;5063897;28;20183;-83
2021/04/25 14:43:06;;;;;;;2.40;1.70;;;22.40;46.10;;;;;;5098131;28;20236;-83
2021/04/25 14:45:32;;;;;;;1.97;1.40;;;22.40;46.10;;;;;;5064884;28;20182;-82
2021/04/25 14:48:01;;;;;;;2.63;1.93;;;22.40;46.00;;;;;;5090806;28;20539;-83
2021/04/25 14:50:31;;;;;;;1.97;1.57;;;22.40;46.00;;;;;;5069020;28;20425;-83
2021/04/25 14:52:57;;;;;;;3.10;1.90;;;22.40;46.00;;;;;;5066361;28;20428;-83
2021/04/25 14:55:23;;;;;;;2.10;1.73;;;22.40;46.00;;;;;;5098533;28;20436;-83
2021/04/25 14:57:49;;;;;;;1.93;1.67;;;22.40;46.10;;;;;;5103995;28;20419;-83
2021/04/25 15:00:20;;;;;;;1.53;1.33;;;22.40;46.10;;;;;;5064192;28;20450;-83
2021/04/25 15:02:46;;;;;;;1.63;1.37;;;22.40;46.10;;;;;;5083999;28;20446;-83
2021/04/25 15:05:13;;;;;;;1.73;1.53;;;22.40;46.20;;;;;;5066759;28;20441;-83
2021/04/25 15:07:43;;;;;;;2.07;1.87;;;22.40;46.10;;;;;;5087792;28;20541;-83
2021/04/25 15:10:10;;;;;;;2.67;1.53;;;22.40;46.10;;;;;;5080814;28;20443;-82
2021/04/25 15:12:36;;;;;;;2.70;2.07;;;22.40;46.10;;;;;;5069897;28;20412;-83
2021/04/25 15:15:01;;;;;;;2.00;1.47;;;22.40;46.10;;;;;;5087360;28;20442;-83
2021/04/25 15:17:28;;;;;;;2.20;1.60;;;22.40;46.20;;;;;;5068161;28;20697;-83
2021/04/25 15:19:55;;;;;;;2.00;1.80;;;22.40;46.30;;;;;;5082346;28;20178;-84
2021/04/25 15:22:28;;;;;;;1.70;1.60;;;22.40;46.10;;;;;;5066825;28;20454;-84
2021/04/25 15:24:55;;;;;;;3.00;1.80;;;22.40;46.10;;;;;;5088479;28;20463;-83
2021/04/25 15:27:20;;;;;;;2.47;2.07;;;22.40;46.10;;;;;;5089773;28;20470;-84
2021/04/25 15:29:48;;;;;;;2.00;1.70;;;22.40;46.40;;;;;;5087989;28;20411;-83
2021/04/25 15:32:17;;;;;;;4.73;1.60;;;22.40;46.10;;;;;;5052538;28;20630;-83
2021/04/25 15:34:46;;;;;;;2.13;1.67;;;22.40;46.30;;;;;;5084027;28;20415;-84
2021/04/25 15:37:16;;;;;;;1.67;1.40;;;22.40;46.20;;;;;;5067160;28;20426;-82
2021/04/25 15:39:47;;;;;;;2.97;1.60;;;22.40;46.20;;;;;;5084966;28;20469;-83
2021/04/25 15:42:14;;;;;;;1.63;1.53;;;22.40;46.20;;;;;;5072966;28;20428;-82
2021/04/25 15:44:40;;;;;;;1.90;1.50;;;22.40;46.20;;;;;;5068225;28;20412;-83
2021/04/25 15:47:07;;;;;;;1.43;1.30;;;22.40;46.40;;;;;;5070876;28;20432;-83
2021/04/25 15:49:35;;;;;;;2.30;1.80;;;22.40;46.50;;;;;;5075151;28;20198;-83
2021/04/25 15:52:01;;;;;;;2.30;1.43;;;22.40;46.20;;;;;;5091390;28;20476;-84
2021/04/25 15:54:26;;;;;;;1.63;1.40;;;22.40;46.30;;;;;;5089594;28;20458;-83
2021/04/25 16:00:15;;;;;;;2.33;1.83;;;22.40;46.10;;;;;;5095027;28;20181;-83
2021/04/25 16:02:43;;;;;;;1.93;1.70;;;22.40;46.20;;;;;;5063928;28;20480;-84
2021/04/25 16:05:12;;;;;;;1.83;1.50;;;22.40;46.40;;;;;;5072944;28;20450;-83
2021/04/25 16:07:39;;;;;;;2.27;1.53;;;22.20;46.20;;;;;;5068022;28;20421;-83
2021/04/25 16:10:06;;;;;;;1.73;1.60;;;22.40;46.20;;;;;;5079235;28;20415;-83
2021/04/25 16:12:32;;;;;;;2.10;1.37;;;22.40;46.30;;;;;;5084944;28;20424;-83
2021/04/25 16:14:57;;;;;;;2.30;1.77;;;22.40;46.30;;;;;;5086302;28;20408;-83
2021/04/25 16:17:23;;;;;;;2.80;1.70;;;22.40;46.40;;;;;;5088745;28;20407;-83
2021/04/25 16:23:12;;;;;;;2.00;1.37;;;22.30;46.10;;;;;;5090340;28;20166;-84
2021/04/25 16:25:41;;;;;;;1.70;1.60;;;22.40;46.40;;;;;;5072006;28;20421;-84
2021/04/25 16:28:07;;;;;;;1.53;1.33;;;22.30;46.20;;;;;;5064567;28;20502;-84
2021/04/25 16:30:33;;;;;;;2.00;1.60;;;22.40;46.50;;;;;;5072210;28;20413;-85
2021/04/25 16:32:58;;;;;;;2.00;1.47;;;22.40;46.40;;;;;;5072781;28;20243;-84
2021/04/25 16:35:27;;;;;;;1.87;1.50;;;22.40;46.50;;;;;;5089935;28;20178;-84
2021/04/25 16:37:53;;;;;;;1.47;1.37;;;22.40;46.30;;;;;;5071768;28;20438;-84
2021/04/25 16:40:20;;;;;;;2.43;1.50;;;22.40;46.50;;;;;;5049183;28;20519;-83
2021/04/25 16:42:48;;;;;;;1.90;1.50;;;22.40;46.60;;;;;;5063902;28;20880;-84
2021/04/25 16:45:15;;;;;;;1.33;1.23;;;22.40;46.30;;;;;;5085045;28;20424;-83
2021/04/25 16:47:47;;;;;;;1.80;1.57;;;22.40;46.30;;;;;;5088521;28;20419;-84
2021/04/25 16:50:13;;;;;;;1.87;1.50;;;22.40;46.20;;;;;;5070625;28;20422;-83
2021/04/25 16:52:40;;;;;;;1.83;1.40;;;22.40;46.30;;;;;;5088415;28;20427;-84
2021/04/25 16:55:08;;;;;;;2.00;1.63;;;22.40;46.40;;;;;;5071206;28;20416;-84
2021/04/25 16:57:43;;;;;;;1.47;1.20;;;22.40;46.40;;;;;;5070775;28;20417;-84
2021/04/25 17:00:11;;;;;;;1.97;1.30;;;22.40;46.30;;;;;;5088526;28;20408;-84
2021/04/25 17:02:42;;;;;;;2.20;1.60;;;22.40;46.30;;;;;;5091842;28;20413;-83
2021/04/25 17:05:14;;;;;;;2.03;1.30;;;22.40;46.50;;;;;;5072881;28;20940;-83
2021/04/25 17:07:41;;;;;;;1.80;1.60;;;22.40;46.40;;;;;;5070767;28;20413;-84
2021/04/25 17:10:12;;;;;;;2.40;1.50;;;22.40;46.30;;;;;;5091869;28;20781;-84
2021/04/25 17:12:44;;;;;;;1.40;1.20;;;22.40;46.40;;;;;;5090452;28;20420;-84
2021/04/25 17:15:12;;;;;;;1.67;1.40;;;22.40;46.30;;;;;;5073077;28;20444;-83
2021/04/25 17:17:44;;;;;;;2.20;1.23;;;22.40;46.30;;;;;;5073062;28;20436;-84
2021/04/25 17:20:12;;;;;;;1.80;1.47;;;22.40;46.40;;;;;;5088936;28;20405;-84
2021/04/25 17:22:38;;;;;;;1.53;1.23;;;22.40;46.40;;;;;;5052180;28;20425;-84
2021/04/25 17:25:14;;;;;;;1.77;1.47;;;22.40;46.40;;;;;;5089128;28;20416;-85
2021/04/25 17:27:40;;;;;;;1.90;1.50;;;22.40;46.50;;;;;;5088483;28;20423;-85
2021/04/25 17:30:12;;;;;;;2.10;1.63;;;22.40;46.40;;;;;;5070876;28;20421;-84
2021/04/25 17:32:40;;;;;;;1.63;1.40;;;22.40;46.50;;;;;;5087095;28;20528;-83
2021/04/25 17:35:07;;;;;;;1.73;1.27;;;22.40;46.60;;;;;;5089039;28;20416;-84
2021/04/25 17:37:33;;;;;;;1.73;1.63;;;22.30;46.50;;;;;;5068146;28;20448;-84
2021/04/25 17:40:02;;;;;;;1.77;1.43;;;22.30;46.40;;;;;;5088853;28;20420;-84
2021/04/25 17:42:28;;;;;;;2.47;1.60;;;22.40;46.50;;;;;;5065829;28;20205;-83
2021/04/25 17:44:53;;;;;;;1.93;1.30;;;22.40;46.60;;;;;;5070119;28;20488;-83
2021/04/25 17:47:20;;;;;;;2.17;1.50;;;22.30;46.40;;;;;;5071040;28;20474;-85
2021/04/25 17:49:48;;;;;;;1.50;1.20;;;22.30;46.40;;;;;;5089077;28;20216;-84
2021/04/25 17:52:14;;;;;;;2.03;1.60;;;22.40;46.60;;;;;;5071014;28;20794;-85
2021/04/25 17:54:42;;;;;;;1.97;1.50;;;22.30;46.50;;;;;;5071306;28;20425;-85
2021/04/25 17:57:08;;;;;;;2.00;1.40;;;22.40;46.70;;;;;;5088619;28;20182;-85
2021/04/25 17:59:35;;;;;;;1.73;1.27;;;22.40;46.80;;;;;;5089498;28;20485;-85
2021/04/25 18:02:01;;;;;;;2.80;1.50;;;22.30;46.80;;;;;;5070644;28;20253;-85
2021/04/25 18:04:29;;;;;;;1.87;1.43;;;22.40;46.80;;;;;;5070088;28;20432;-85
2021/04/25 18:06:54;;;;;;;2.00;1.50;;;22.30;46.60;;;;;;5090177;28;20432;-84
2021/04/25 18:09:23;;;;;;;2.33;1.60;;;22.30;46.60;;;;;;5089423;28;20508;-85
2021/04/25 18:11:49;;;;;;;1.80;1.60;;;22.60;46.80;;;;;;5070087;28;20190;-84
2021/04/25 18:14:15;;;;;;;1.57;1.40;;;22.30;46.70;;;;;;5090237;28;20439;-85
2021/04/25 18:16:43;;;;;;;2.77;1.40;;;22.30;46.70;;;;;;5072449;28;20212;-84
2021/04/25 18:19:09;;;;;;;1.50;1.10;;;22.30;46.70;;;;;;5065604;28;20208;-84
2021/04/25 18:21:35;;;;;;;1.97;1.30;;;22.30;46.70;;;;;;5090490;28;20412;-85
2021/04/25 18:24:06;;;;;;;2.03;1.20;;;22.30;46.60;;;;;;5088534;28;20174;-85
2021/04/25 18:26:32;;;;;;;2.37;1.50;;;22.30;46.50;;;;;;5070794;28;20186;-85
2021/04/25 18:28:58;;;;;;;1.70;1.33;;;22.30;46.60;;;;;;5069206;28;20524;-84
2021/04/25 18:31:27;;;;;;;1.93;1.30;;;22.30;46.60;;;;;;5069918;28;20409;-84
2021/04/25 18:33:56;;;;;;;2.63;1.30;;;22.30;46.40;;;;;;5086702;28;20181;-84
2021/04/25 18:36:23;;;;;;;1.40;1.00;;;22.30;46.50;;;;;;5069191;28;20416;-84
2021/04/25 18:38:53;;;;;;;1.60;1.33;;;22.30;46.80;;;;;;5087403;28;20489;-83
2021/04/25 18:41:19;;;;;;;1.27;1.00;;;22.30;46.60;;;;;;5089561;28;20404;-83
2021/04/25 18:43:45;;;;;;;2.23;1.60;;;22.20;46.40;;;;;;5070572;28;20409;-84
2021/04/25 18:46:13;;;;;;;2.30;1.50;;;22.30;46.70;;;;;;5103936;28;20753;-84
2021/04/25 18:48:41;;;;;;;1.37;1.10;;;22.30;46.80;;;;;;5072462;28;20468;-84
2021/04/25 18:51:07;;;;;;;1.40;1.20;;;22.30;46.60;;;;;;5072544;28;20420;-84
2021/04/25 18:53:40;;;;;;;2.53;1.40;;;22.30;46.50;;;;;;5073073;28;20447;-84
2021/04/25 18:56:06;;;;;;;2.63;1.30;;;22.30;46.50;;;;;;5090044;28;20405;-84
2021/04/25 18:58:35;;;;;;;1.83;1.37;;;22.30;46.80;;;;;;5105666;28;20503;-84
2021/04/25 19:01:04;;;;;;;2.93;1.50;;;22.30;46.50;;;;;;5088979;28;20419;-84
2021/04/25 19:03:30;;;;;;;1.87;1.30;;;22.30;46.60;;;;;;5070209;28;20911;-84
2021/04/25 19:05:56;;;;;;;1.83;1.37;;;22.30;46.90;;;;;;5089775;28;20439;-83
2021/04/25 19:08:26;;;;;;;1.90;1.30;;;22.30;46.80;;;;;;5069715;28;20194;-83
2021/04/25 19:10:52;;;;;;;1.77;1.57;;;22.30;46.80;;;;;;5068865;28;20423;-84
2021/04/25 19:13:18;;;;;;;1.27;1.17;;;22.30;46.70;;;;;;5069074;28;20409;-84
2021/04/25 19:15:45;;;;;;;2.13;1.30;;;22.30;46.80;;;;;;5086498;28;20956;-84
2021/04/25 19:18:11;;;;;;;1.90;1.30;;;22.20;46.60;;;;;;5069389;28;20179;-83
2021/04/25 19:20:40;;;;;;;1.43;1.17;;;22.20;46.60;;;;;;5066486;28;20443;-84
2021/04/25 19:23:05;;;;;;;1.70;1.30;;;22.20;46.60;;;;;;5055836;28;20413;-84
2021/04/25 19:28:54;;;;;;;1.83;1.30;;;22.30;46.60;;;;;;5093177;28;20498;-83
2021/04/25 19:31:21;;;;;;;1.67;1.40;;;22.20;46.60;;;;;;5077921;28;20998;-84
2021/04/25 19:33:48;;;;;;;1.57;1.33;;;22.10;46.60;;;;;;5095678;28;20466;-83
2021/04/25 19:36:19;;;;;;;1.63;1.50;;;22.20;46.60;;;;;;5094971;28;20420;-83
2021/04/25 19:38:46;;;;;;;1.40;1.20;;;22.20;46.60;;;;;;5071521;28;20428;-84
2021/04/25 19:41:15;;;;;;;2.50;1.23;;;22.20;46.60;;;;;;5090037;28;20446;-84
2021/04/25 19:43:41;;;;;;;1.97;1.47;;;22.20;46.60;;;;;;5078839;28;20428;-83
2021/04/25 19:46:07;;;;;;;2.50;1.67;;;22.20;46.60;;;;;;5055340;28;20420;-84
2021/04/25 19:48:33;;;;;;;1.00;0.90;;;22.20;46.70;;;;;;5064919;28;21018;-83
2021/04/25 19:51:03;;;;;;;1.77;1.60;;;22.20;46.60;;;;;;5074519;28;20178;-83
2021/04/25 19:53:30;;;;;;;1.60;1.20;;;22.20;46.60;;;;;;5077055;28;20996;-83
2021/04/25 19:55:57;;;;;;;1.40;1.10;;;22.20;46.50;;;;;;5081580;28;20428;-83
2021/04/25 19:58:23;;;;;;;1.40;1.10;;;22.20;46.50;;;;;;5075757;28;20475;-83
2021/04/25 20:00:51;;;;;;;1.50;1.20;;;22.20;46.60;;;;;;5073138;28;20774;-85
2021/04/25 20:03:26;;;;;;;1.80;1.47;;;22.20;46.60;;;;;;5085899;28;20439;-83
2021/04/25 20:05:56;;;;;;;1.70;1.37;;;22.30;46.50;;;;;;5090700;28;20440;-83
2021/04/25 20:08:28;;;;;;;1.30;1.03;;;22.30;46.50;;;;;;5070830;28;20463;-85
2021/04/25 20:10:56;;;;;;;1.40;1.20;;;22.30;46.60;;;;;;5083882;28;20415;-84
2021/04/25 20:13:27;;;;;;;2.37;1.40;;;22.30;46.60;;;;;;5061242;28;20878;-83
2021/04/25 20:15:53;;;;;;;1.20;1.10;;;22.30;46.60;;;;;;5065508;28;20416;-84
2021/04/25 20:18:20;;;;;;;1.63;1.20;;;22.30;46.50;;;;;;5065179;28;20535;-83
2021/04/25 20:20:47;;;;;;;1.30;1.20;;;22.30;46.80;;;;;;5065947;28;20436;-83
2021/04/25 20:23:14;;;;;;;1.70;1.00;;;22.30;46.50;;;;;;5082947;28;20452;-83
2021/04/25 20:25:41;;;;;;;1.40;1.10;;;22.30;46.50;;;;;;5083720;28;20466;-83
2021/04/25 20:28:10;;;;;;;1.43;1.17;;;22.30;46.60;;;;;;5067439;28;20520;-83
2021/04/25 20:30:46;;;;;;;1.40;1.10;;;22.30;46.50;;;;;;5072277;28;20416;-83
2021/04/25 20:33:16;;;;;;;1.63;1.07;;;22.30;46.50;;;;;;5066773;28;20447;-84
2021/04/25 20:35:45;;;;;;;2.13;1.20;;;22.30;46.60;;;;;;5073398;28;20422;-84
2021/04/25 20:38:11;;;;;;;1.80;1.30;;;22.30;46.70;;;;;;5098017;28;20452;-83
2021/04/25 20:40:38;;;;;;;1.10;1.00;;;22.30;46.60;;;;;;5084758;28;20427;-83
2021/04/25 20:43:04;;;;;;;1.20;1.10;;;22.30;46.50;;;;;;5070933;28;20511;-84
2021/04/25 20:45:30;;;;;;;1.60;1.33;;;22.30;46.60;;;;;;5103025;28;20442;-84
2021/04/25 20:48:01;;;;;;;1.47;1.30;;;22.30;46.60;;;;;;5100271;28;20505;-82
2021/04/25 20:50:32;;;;;;;1.50;1.30;;;22.30;46.60;;;;;;5091459;28;20418;-83
2021/04/25 20:52:59;;;;;;;1.63;1.30;;;22.30;46.60;;;;;;5104194;28;20467;-82
2021/04/25 20:55:25;;;;;;;1.30;1.07;;;22.30;46.70;;;;;;5060913;28;20405;-84
2021/04/25 20:57:52;;;;;;;1.33;1.20;;;22.30;46.60;;;;;;5066334;28;20429;-83
2021/04/25 21:00:25;;;;;;;1.10;1.00;;;22.30;46.60;;;;;;5074112;28;20428;-84
2021/04/25 21:02:53;;;;;;;1.93;1.30;;;22.30;46.60;;;;;;5093200;28;20502;-84
2021/04/25 21:05:19;;;;;;;2.63;1.30;;;22.30;46.60;;;;;;5068419;28;20483;-83
2021/04/25 21:07:49;;;;;;;1.20;1.10;;;22.30;46.60;;;;;;5100667;28;20793;-84
2021/04/25 21:10:17;;;;;;;2.47;1.13;;;22.30;46.70;;;;;;5070989;28;20419;-83
2021/04/25 21:12:44;;;;;;;3.57;1.40;;;22.30;46.50;;;;;;5071600;28;20417;-83
2021/04/25 21:15:11;;;;;;;1.50;1.10;;;22.30;46.60;;;;;;5076507;28;20409;-83
2021/04/25 21:17:37;;;;;;;1.40;1.10;;;22.30;46.70;;;;;;5099842;28;20441;-83
2021/04/25 21:20:06;;;;;;;1.50;1.20;;;22.30;46.70;;;;;;5097376;28;20416;-83
2021/04/25 21:22:33;;;;;;;1.27;1.10;;;22.30;46.50;;;;;;5070947;28;20182;-83
2021/04/25 21:24:59;;;;;;;1.40;1.10;;;22.40;46.60;;;;;;5076961;28;20456;-83
2021/04/25 21:27:27;;;;;;;1.30;1.07;;;22.40;46.80;;;;;;5094812;28;20439;-84
2021/04/25 21:29:53;;;;;;;1.93;1.37;;;22.30;46.60;;;;;;5079720;28;20205;-83
2021/04/25 21:32:19;;;;;;;1.40;1.10;;;22.30;46.90;;;;;;5091846;28;20405;-83
2021/04/25 21:34:50;;;;;;;1.43;1.03;;;22.30;46.70;;;;;;5097084;28;20438;-83
2021/04/25 21:37:16;;;;;;;2.80;1.20;;;22.30;46.80;;;;;;5069244;28;20178;-83
2021/04/25 21:39:42;;;;;;;2.83;1.20;;;22.30;46.80;;;;;;5091763;28;20443;-84
2021/04/25 21:45:31;;;;;;;1.27;1.00;;;22.30;46.50;;;;;;5093559;28;20395;-84
2021/04/25 21:48:07;;;;;;;4.30;1.30;;;22.30;46.60;;;;;;5073294;28;20466;-86
2021/04/25 21:50:44;;;;;;;2.00;1.07;;;22.30;46.70;;;;;;5070244;28;20833;-84
2021/04/25 21:53:10;;;;;;;1.40;1.07;;;22.30;46.70;;;;;;5084712;28;20472;-84
2021/04/25 21:55:38;;;;;;;1.93;1.00;;;22.20;46.60;;;;;;5069344;28;20417;-83
2021/04/25 21:58:05;;;;;;;2.03;1.23;;;22.30;46.70;;;;;;5061283;28;20420;-84
2021/04/25 22:00:48;;;;;;;2.20;1.23;;;22.30;46.60;;;;;;5050369;28;20419;-84
2021/04/25 22:03:25;;;;;;;2.47;1.63;;;22.30;46.60;;;;;;5095727;28;20431;-84
2021/04/25 22:05:56;;;;;;;1.30;0.93;;;22.30;46.50;;;;;;5095282;28;20502;-84
2021/04/25 22:08:24;;;;;;;1.60;1.23;;;22.30;46.60;;;;;;5087144;28;20449;-85
2021/04/25 22:10:52;;;;;;;2.50;1.17;;;22.30;46.50;;;;;;5069650;28;20436;-83
2021/04/25 22:13:21;;;;;;;1.10;1.00;;;22.30;46.60;;;;;;5064117;28;20508;-83
2021/04/25 22:15:47;;;;;;;1.30;1.10;;;22.30;46.60;;;;;;5089890;28;20420;-83
2021/04/25 22:18:14;;;;;;;1.43;1.30;;;22.30;46.80;;;;;;5071202;28;20428;-83
2021/04/25 22:20:40;;;;;;;1.20;1.07;;;22.30;46.70;;;;;;5073796;28;20428;-83
2021/04/25 22:23:06;;;;;;;2.27;1.20;;;22.30;46.60;;;;;;5069114;28;20412;-83
2021/04/25 22:25:32;;;;;;;1.67;1.13;;;22.30;46.50;;;;;;5089070;28;20424;-82